Latest Weather Observations for Williamson

IDQ60801

Issued at 8:32 pm EST Wednesday 1 April 2015 (issued every 30 minutes, with the page automatically refreshed every 10 minutes)

About weather observations | Map of weather stations | Latest weather observations for QLD | Other Formats
Station Details ID: 033195 Name: WILLIAMSON Lat: -22.47 Lon: 150.18 Height: 27.6 m
Data from the previous 72 hours. | See also: Recent months at Williamson
Date/Time
EST
Temp
°C
App
Temp
°C
Dew
Point
Rel
Hum
%
Delta-T
°C
Wind Press
QNH
hPa
Press
MSL
hPa
Rain
since 9 am
mm
Dir
 
Spd
km/h
Gust
km/h
Spd
kts
Gust
kts
01/08:30pm 20.8 23.4 20.1 96 0.4 SSW 6 11 3 6 1015.9 1015.8 21.8
01/08:00pm 21.3 23.8 19.9 92 0.9 SE 6 9 3 5 1015.8 1015.7 21.8
01/07:30pm 21.6 23.6 19.9 90 1.1 ESE 9 17 5 9 1015.5 1015.4 21.8
01/07:00pm 21.5 23.7 20.3 93 0.8 S 9 15 5 8 1015.3 1015.2 21.8
01/06:30pm 21.5 24.2 20.7 95 0.5 SSW 7 9 4 5 1015.3 1015.2 21.8
01/06:00pm 21.6 24.4 20.8 95 0.5 SSE 7 13 4 7 1015.0 1014.9 21.8
01/05:30pm 21.6 24.0 20.1 91 1.0 SSE 7 9 4 5 1014.7 1014.6 21.8
01/05:00pm 21.3 23.1 19.6 90 1.1 ENE 9 13 5 7 1014.4 1014.2 21.8
01/04:30pm 21.3 23.9 20.5 95 0.5 E 7 11 4 6 1014.5 1014.3 21.2
01/04:00pm 21.3 23.6 20.6 96 0.5 SE 9 15 5 8 1014.5 1014.3 20.8
01/03:30pm 21.1 23.8 20.6 97 0.3 E 7 11 4 6 1014.6 1014.4 19.6
01/03:00pm 21.8 24.6 21.5 98 0.2 E 9 15 5 8 1014.7 1014.6 17.4
01/02:30pm 21.2 23.0 20.4 95 0.5 SE 11 15 6 8 1014.7 1014.6 14.6
01/02:00pm 23.5 27.2 21.4 88 1.4 ENE 4 7 2 4 1014.6 1014.4 4.2
01/01:30pm 23.4 27.9 21.5 89 1.3 CALM 0 6 0 3 1014.9 1014.8 4.2
01/01:00pm 22.5 25.5 21.3 93 0.8 E 7 11 4 6 1015.6 1015.5 4.2
01/12:30pm 23.3 25.5 21.2 88 1.4 SE 11 15 6 8 1015.9 1015.8 0.4
01/12:00pm 25.2 26.5 20.2 74 3.3 SSE 13 20 7 11 1016.1 1016.0 0.2
01/11:30am 25.0 26.2 20.0 74 3.2 SE 13 20 7 11 1016.5 1016.4 0.2
01/11:00am 25.3 25.5 19.4 70 3.8 SSE 17 22 9 12 1016.8 1016.7 0.2
01/10:30am 24.7 25.9 20.0 75 3.0 SSE 13 19 7 10 1017.4 1017.3 0.2
01/10:00am 24.0 25.3 20.1 79 2.5 S 13 19 7 10 1017.6 1017.5 0.2
01/09:30am 23.9 24.9 20.2 80 2.4 SSW 15 20 8 11 1017.8 1017.6 0.2
01/09:00am 23.0 24.5 20.5 86 1.6 S 13 19 7 10 1017.7 1017.5 4.0
01/08:30am 22.4 23.8 21.0 92 0.9 S 15 19 8 10 1017.8 1017.6 4.0
01/08:00am 21.9 24.2 20.7 93 0.8 SSW 9 15 5 8 1017.5 1017.3 4.0
01/07:30am 21.2 23.6 20.9 98 0.2 SSW 9 13 5 7 1016.9 1016.7 4.0
01/07:00am 20.8 22.3 20.5 98 0.2 S 13 20 7 11 1016.8 1016.6 4.0
01/06:30am 20.5 22.6 20.2 98 0.2 SSE 9 13 5 7 1016.6 1016.4 3.8
01/06:00am 20.5 22.9 20.0 97 0.3 S 7 9 4 5 1016.8 1016.6 3.4
01/05:30am 20.6 22.9 19.9 96 0.4 SW 7 11 4 6 1016.7 1016.5 3.4
01/05:00am 20.5 22.4 19.7 95 0.5 SSE 9 13 5 7 1016.4 1016.2 3.4
01/04:30am 20.4 21.4 19.4 94 0.6 S 13 17 7 9 1015.9 1015.7 3.4
01/04:00am 20.3 22.5 19.3 94 0.6 S 6 11 3 6 1015.7 1015.5 3.4
01/03:30am 20.4 23.1 19.4 94 0.6 WSW 4 7 2 4 1015.4 1015.2 3.4
01/03:00am 20.8 23.4 20.0 95 0.5 SW 6 11 3 6 1015.7 1015.5 3.4
01/02:30am 21.1 25.0 20.3 95 0.5 CALM 0 2 0 1 1015.8 1015.6 3.4
01/02:00am 21.4 23.3 20.6 95 0.5 SW 11 15 6 8 1016.2 1016.0 3.4
01/01:30am 21.6 24.0 20.9 96 0.5 SSE 9 15 5 8 1016.3 1016.1 2.4
01/01:00am 22.2 25.0 20.5 90 1.1 SE 6 9 3 5 1017.3 1017.1 0.6
01/12:30am 22.5 26.0 20.4 88 1.4 ESE 2 7 1 4 1017.7 1017.5 0.0
01/12:00am 22.7 24.5 19.5 82 2.0 WSW 9 13 5 7 1018.5 1018.3 0.0
 
Date/Time
EST
Temp
°C
App
Temp
°C
Dew
Point
Rel
Hum
%
Delta-T
°C
Wind Press
QNH
hPa
Press
MSL
hPa
Rain
since 9 am
mm
Dir
 
Spd
km/h
Gust
km/h
Spd
kts
Gust
kts
31/11:30pm 24.4 25.3 18.3 69 3.8 ESE 11 22 6 12 1018.0 1017.8 0.0
31/11:00pm 24.0 24.5 18.4 71 3.5 ESE 13 22 7 12 1017.8 1017.6 0.0
31/10:30pm 24.2 25.0 19.1 73 3.3 ESE 13 24 7 13 1018.3 1018.1 0.0
31/10:00pm 24.1 24.9 19.0 73 3.2 ESE 13 22 7 12 1018.4 1018.2 0.0
31/09:30pm 24.1 24.4 18.7 72 3.4 ESE 15 28 8 15 1018.5 1018.3 0.0
31/09:00pm 24.0 24.2 18.6 72 3.4 ESE 15 26 8 14 1018.4 1018.2 0.0
31/08:30pm 23.9 24.6 19.6 77 2.8 E 15 26 8 14 1018.5 1018.3 0.0
31/08:00pm 24.0 24.9 19.3 75 3.0 E 13 24 7 13 1018.0 1017.8 0.0
31/07:30pm 24.1 25.0 19.2 74 3.1 E 13 20 7 11 1018.0 1017.8 0.0
31/07:00pm 24.2 24.9 18.8 72 3.4 ESE 13 22 7 12 1017.8 1017.6 0.0
31/06:30pm 24.2 25.9 19.3 74 3.1 SE 9 20 5 11 1017.2 1017.0 0.0
31/06:00pm 24.3 24.9 19.4 74 3.1 ESE 15 20 8 11 1016.7 1016.5 0.0
31/05:30pm 24.8 25.8 19.4 72 3.5 ESE 13 26 7 14 1016.5 1016.3 0.0
31/05:00pm 25.7 26.8 19.6 69 3.9 SE 13 20 7 11 1016.1 1015.9 0.0
31/04:30pm 25.8 26.6 19.0 66 4.4 SSE 13 22 7 12 1015.9 1015.7 0.0
31/04:00pm 27.1 28.2 19.7 64 4.8 ESE 13 22 7 12 1015.5 1015.3 0.0
31/03:30pm 28.1 28.9 19.9 61 5.4 SE 15 24 8 13 1015.5 1015.3 0.0
31/03:00pm 28.3 29.3 19.5 59 5.7 SSE 13 22 7 12 1015.5 1015.3 0.0
31/02:30pm 28.6 30.8 20.3 60 5.5 SE 9 17 5 9 1016.0 1015.8 0.0
31/02:00pm 28.1 29.3 19.9 61 5.4 E 13 20 7 11 1016.3 1016.1 0.0
31/01:30pm 28.2 30.6 20.0 61 5.4 E 7 15 4 8 1016.7 1016.5 0.0
31/01:00pm 28.0 29.4 20.3 63 5.1 SE 13 19 7 10 1017.0 1016.8 0.0
31/12:30pm 28.7 29.4 18.8 55 6.4 SE 13 22 7 12 1017.4 1017.2 0.0
31/12:00pm 29.1 29.8 18.8 53 6.6 ESE 13 17 7 9 1017.8 1017.6 0.0
31/11:30am 28.5 28.9 18.9 56 6.2 ESE 15 26 8 14 1018.1 1017.9 0.0
31/11:00am 28.1 28.8 19.6 60 5.5 ESE 15 24 8 13 1018.7 1018.5 0.0
31/10:30am 27.2 28.7 20.5 67 4.4 SSW 13 20 7 11 1019.2 1019.0 0.0
31/10:00am 27.6 28.4 19.1 59 5.5 SE 13 19 7 10 1019.5 1019.3 0.0
31/09:30am 27.2 28.3 18.8 60 5.4 ESE 11 20 6 11 1019.3 1019.1 0.0
31/09:00am 27.0 28.2 18.3 59 5.5 ESE 9 17 5 9 1019.0 1018.8 0.0
31/08:30am 25.6 27.9 19.9 70 3.7 S 7 11 4 6 1019.2 1019.0 0.0
31/08:00am 25.0 26.8 19.6 72 3.5 SSW 9 13 5 7 1019.1 1018.9 0.0
31/07:30am 23.6 25.9 19.5 78 2.6 S 6 9 3 5 1018.7 1018.5 0.0
31/07:00am 21.9 24.9 19.3 85 1.6 SSW 2 7 1 4 1018.6 1018.4 0.0
31/06:30am 20.3 23.6 19.1 93 0.8 CALM 0 6 0 3 1018.2 1018.0 0.0
31/06:00am 20.2 23.0 18.9 92 0.8 SSW 2 6 1 3 1017.9 1017.7 0.0
31/05:30am 20.2 22.3 19.0 93 0.8 SW 6 7 3 4 1017.9 1017.7 0.0
31/05:00am 20.2 23.4 18.9 92 0.8 CALM 0 0 0 0 1017.6 1017.4 0.0
31/04:30am 20.6 23.4 18.9 90 1.1 SSE 2 9 1 5 1017.4 1017.2 0.0
31/04:00am 20.8 23.0 19.1 90 1.1 S 6 9 3 5 1017.3 1017.1 0.0
31/03:30am 20.8 24.2 19.3 91 0.9 CALM 0 0 0 0 1017.3 1017.1 0.0
31/03:00am 20.8 22.3 18.9 89 1.2 SSW 9 11 5 6 1017.3 1017.1 0.0
31/02:30am 21.6 24.6 19.2 86 1.5 S 2 6 1 3 1017.6 1017.4 0.0
31/02:00am 21.6 23.8 19.2 86 1.5 S 6 7 3 4 1017.9 1017.7 0.0
31/01:30am 22.1 24.3 19.3 84 1.8 S 6 11 3 6 1018.3 1018.1 0.0
31/01:00am 22.7 24.1 19.5 82 2.0 S 11 17 6 9 1018.7 1018.5 0.0
31/12:30am 23.3 25.7 20.1 82 2.1 SSE 7 9 4 5 1019.0 1018.8 0.0
31/12:00am 23.1 26.1 20.1 83 1.9 S 4 7 2 4 1019.3 1019.1 0.0
 
Date/Time
EST
Temp
°C
App
Temp
°C
Dew
Point
Rel
Hum
%
Delta-T
°C
Wind Press
QNH
hPa
Press
MSL
hPa
Rain
since 9 am
mm
Dir
 
Spd
km/h
Gust
km/h
Spd
kts
Gust
kts
30/11:30pm 23.8 26.7 19.9 79 2.5 S 4 9 2 5 1019.5 1019.3 0.0
30/11:00pm 23.8 26.2 19.7 78 2.6 SSE 6 9 3 5 1019.6 1019.4 0.0
30/10:30pm 23.9 27.0 19.4 76 2.9 SSE 2 7 1 4 1020.0 1019.8 0.0
30/10:00pm 25.3 27.2 19.7 71 3.6 ESE 9 15 5 8 1020.1 1019.9 0.0
30/09:30pm 25.2 27.1 19.8 72 3.5 ESE 9 19 5 10 1020.1 1019.9 0.0
30/09:00pm 25.3 26.8 19.7 71 3.6 SE 11 20 6 11 1019.9 1019.7 0.0
30/08:30pm 25.4 26.8 19.5 70 3.8 ESE 11 19 6 10 1019.8 1019.6 0.0
30/08:00pm 25.6 26.6 19.5 69 3.9 ESE 13 19 7 10 1019.6 1019.4 0.0
30/07:30pm 25.6 27.0 19.5 69 3.9 ESE 11 22 6 12 1019.1 1018.9 0.0
30/07:00pm 25.8 27.4 19.9 70 3.8 ESE 11 19 6 10 1018.9 1018.7 0.0
30/06:30pm 26.2 27.3 19.6 67 4.3 ESE 13 22 7 12 1018.7 1018.5 0.0
30/06:00pm 26.7 28.4 19.3 64 4.8 ESE 9 15 5 8 1018.3 1018.1 0.0
30/05:30pm 27.5 28.3 19.0 59 5.5 E 13 24 7 13 1018.2 1018.0 0.0
30/05:00pm 27.6 27.3 19.1 59 5.5 E 19 33 10 18 1018.0 1017.8 0.0
30/04:30pm 28.8 28.9 19.1 55 6.3 ESE 17 32 9 17 1017.7 1017.5 0.0
30/04:00pm 29.7 30.5 19.1 53 6.9 ESE 13 24 7 13 1017.1 1016.9 0.0
30/03:30pm 29.9 29.9 19.0 52 7.1 ESE 17 28 9 15 1016.7 1016.5 0.0
30/03:00pm 30.2 30.2 18.9 50 7.3 SE 17 26 9 14 1016.6 1016.4 0.0
30/02:30pm 29.9 29.1 19.3 53 6.9 ESE 22 35 12 19 1016.8 1016.6 0.0
30/02:00pm 29.8 30.3 19.2 53 6.9 ESE 15 24 8 13 1017.0 1016.8 0.0
30/01:30pm 30.4 31.1 19.7 52 7.0 ESE 15 24 8 13 1017.4 1017.2 0.0
30/01:00pm 30.1 30.5 19.8 54 6.8 ESE 17 32 9 17 1017.8 1017.6 0.0
30/12:30pm 29.9 29.2 19.6 54 6.7 ESE 22 33 12 18 1018.2 1018.0 0.0
30/12:00pm 29.7 30.0 20.3 57 6.2 ESE 19 33 10 18 1018.6 1018.4 0.0
30/11:30am 29.9 30.1 20.2 56 6.4 ESE 19 30 10 16 1019.2 1019.0 0.0
30/11:00am 29.1 29.6 20.0 58 6.0 ESE 17 26 9 14 1019.5 1019.3 0.0
30/10:30am 29.0 29.2 20.2 59 5.8 ESE 19 30 10 16 1019.8 1019.6 0.0
30/10:00am 28.6 29.2 20.3 60 5.5 ESE 17 28 9 15 1020.1 1019.9 0.0
30/09:30am 28.6 29.0 20.9 63 5.1 ESE 20 30 11 16 1020.2 1020.0 0.0
30/09:00am 27.5 29.3 21.1 68 4.2 E 13 22 7 12 1020.2 1020.0 4.0
30/08:30am 27.2 28.6 21.0 69 4.1 SE 15 22 8 12 1020.1 1019.9 4.0
30/08:00am 26.9 28.6 21.0 70 3.9 SE 13 20 7 11 1019.9 1019.7 4.0
30/07:30am 26.0 28.6 21.2 75 3.2 SE 9 19 5 10 1019.5 1019.3 4.0
30/07:00am 24.7 27.7 21.2 81 2.3 SE 7 11 4 6 1019.3 1019.1 4.0
30/06:30am 23.6 26.7 21.5 88 1.4 SE 7 15 4 8 1018.9 1018.7 4.0
30/06:00am 22.8 26.2 21.6 93 0.8 SE 6 11 3 6 1018.7 1018.5 4.0
30/05:30am 22.8 26.6 21.6 93 0.8 SSE 4 7 2 4 1018.6 1018.4 4.0
30/05:00am 22.8 26.7 21.8 94 0.7 SE 4 9 2 5 1018.2 1018.0 4.0
30/04:30am 22.9 25.9 21.9 94 0.7 S 9 15 5 8 1018.2 1018.0 4.0
30/04:00am 22.9 26.2 21.9 94 0.7 SSW 7 13 4 7 1018.2 1018.0 4.0
30/03:30am 23.3 26.6 21.9 92 0.9 SSW 7 11 4 6 1017.9 1017.7 4.0
30/03:00am 23.7 27.3 22.0 90 1.1 SE 6 7 3 4 1018.0 1017.8 4.0
30/02:30am 23.7 26.6 21.8 89 1.3 SSE 9 11 5 6 1018.1 1017.9 4.0
30/02:00am 23.8 27.3 22.2 91 1.1 SE 7 13 4 7 1018.2 1018.0 4.0
30/01:30am 23.5 27.0 22.1 92 0.9 ESE 7 11 4 6 1018.5 1018.3 4.0
30/01:00am 23.3 26.7 21.7 91 1.1 ESE 6 7 3 4 1019.1 1018.9 4.0
30/12:30am 23.2 26.4 22.4 95 0.5 ENE 9 15 5 8 1019.7 1019.5 3.8
30/12:00am 23.0 28.0 22.5 97 0.3 CALM 0 0 0 0 1019.9 1019.7 3.8
 
Date/Time
EST
Temp
°C
App
Temp
°C
Dew
Point
Rel
Hum
%
Delta-T
°C
Wind Press
QNH
hPa
Press
MSL
hPa
Rain
since 9 am
mm
Dir
 
Spd
km/h
Gust
km/h
Spd
kts
Gust
kts
29/11:30pm 22.9 26.5 22.1 95 0.5 SSE 6 9 3 5 1020.1 1019.9 3.8
29/11:00pm 22.9 26.5 22.1 95 0.5 ESE 6 9 3 5 1020.4 1020.2 3.8
29/10:30pm 22.9 26.2 21.9 94 0.7 SE 7 15 4 8 1020.9 1020.7 3.8
29/10:00pm 23.0 25.4 21.6 92 0.9 SSE 11 17 6 9 1020.9 1020.7 2.2
29/09:30pm 22.8 26.4 22.1 96 0.5 SE 6 9 3 5 1020.8 1020.6 2.2
29/09:00pm 22.6 24.8 21.9 96 0.5 S 13 17 7 9 1020.6 1020.4 2.2

Other Formats:

Comma delimited format used in spreadsheet applications
http://www.bom.gov.au/fwo/IDQ60801/IDQ60801.95370.axf

JavaScript Object Notation format (JSON) in row-major order
http://www.bom.gov.au/fwo/IDQ60801/IDQ60801.95370.json